Terminal Aerodrome Forecast
Issued by NWS

Home | Current Version | Previous Version | Text Only | Print | Product List | Glossary On
Versions: 1 2 3 4 5 6 7 8 9 10 11 12 13 14 15 16 17 18 19 20
000
FTUS41 KGYX 302023 AAA
TAFPSM
TAF AMD
KPSM 302023Z 3020/3118 30007KT 5SM -SN BR BKN015
     FM310300 32016G28KT 6SM -SN BLSN OVC025
     FM310800 31018G29KT P6SM BKN040=

USA.gov is the U.S. government's official web portal to all federal, state and local government web resources and services.